sensor_id;sensor_type;location;lat;lon;timestamp;temperature;humidity
40556;DHT22;26250;45.422;11.100;2023-07-13T00:01:54;27.50;77.90
40556;DHT22;26250;45.422;11.100;2023-07-13T00:04:23;27.30;78.50
40556;DHT22;26250;45.422;11.100;2023-07-13T00:06:55;27.10;78.60
40556;DHT22;26250;45.422;11.100;2023-07-13T00:09:22;27.20;78.30
40556;DHT22;26250;45.422;11.100;2023-07-13T00:11:54;27.10;78.00
40556;DHT22;26250;45.422;11.100;2023-07-13T00:14:23;26.90;78.40
40556;DHT22;26250;45.422;11.100;2023-07-13T00:16:50;26.80;76.90
40556;DHT22;26250;45.422;11.100;2023-07-13T00:19:17;26.70;76.20
40556;DHT22;26250;45.422;11.100;2023-07-13T00:21:44;26.60;75.90
40556;DHT22;26250;45.422;11.100;2023-07-13T00:24:13;26.70;73.20
40556;DHT22;26250;45.422;11.100;2023-07-13T00:26:41;26.70;71.60
40556;DHT22;26250;45.422;11.100;2023-07-13T00:29:13;26.70;69.90
40556;DHT22;26250;45.422;11.100;2023-07-13T00:31:40;26.70;68.70
40556;DHT22;26250;45.422;11.100;2023-07-13T00:34:07;26.70;69.40
40556;DHT22;26250;45.422;11.100;2023-07-13T00:36:37;26.80;69.40
40556;DHT22;26250;45.422;11.100;2023-07-13T00:39:04;26.90;69.30
40556;DHT22;26250;45.422;11.100;2023-07-13T00:41:32;26.90;69.00
40556;DHT22;26250;45.422;11.100;2023-07-13T00:43:59;27.10;68.30
40556;DHT22;26250;45.422;11.100;2023-07-13T00:46:29;27.10;66.90
40556;DHT22;26250;45.422;11.100;2023-07-13T00:49:02;27.20;67.00
40556;DHT22;26250;45.422;11.100;2023-07-13T00:51:47;27.20;67.60
40556;DHT22;26250;45.422;11.100;2023-07-13T00:54:21;27.10;67.80
40556;DHT22;26250;45.422;11.100;2023-07-13T00:56:51;27.10;68.60
40556;DHT22;26250;45.422;11.100;2023-07-13T00:59:20;27.00;69.00
40556;DHT22;26250;45.422;11.100;2023-07-13T01:01:48;27.10;69.20
40556;DHT22;26250;45.422;11.100;2023-07-13T01:04:16;27.10;69.40
40556;DHT22;26250;45.422;11.100;2023-07-13T01:06:45;27.20;69.40
40556;DHT22;26250;45.422;11.100;2023-07-13T01:09:14;27.20;69.20
40556;DHT22;26250;45.422;11.100;2023-07-13T01:11:41;27.20;69.50
40556;DHT22;26250;45.422;11.100;2023-07-13T01:14:09;27.10;69.90
40556;DHT22;26250;45.422;11.100;2023-07-13T01:16:37;26.80;71.00
40556;DHT22;26250;45.422;11.100;2023-07-13T01:19:12;26.70;71.80
40556;DHT22;26250;45.422;11.100;2023-07-13T01:21:42;26.80;71.70
40556;DHT22;26250;45.422;11.100;2023-07-13T01:24:09;26.60;72.50
40556;DHT22;26250;45.422;11.100;2023-07-13T01:26:37;26.40;73.50
40556;DHT22;26250;45.422;11.100;2023-07-13T01:29:06;26.50;73.10
40556;DHT22;26250;45.422;11.100;2023-07-13T01:31:37;26.30;74.50
40556;DHT22;26250;45.422;11.100;2023-07-13T01:34:04;26.10;75.60
40556;DHT22;26250;45.422;11.100;2023-07-13T01:36:31;26.10;75.90
40556;DHT22;26250;45.422;11.100;2023-07-13T01:38:58;26.20;75.20
40556;DHT22;26250;45.422;11.100;2023-07-13T01:41:25;26.20;75.00
40556;DHT22;26250;45.422;11.100;2023-07-13T01:43:53;26.00;76.20
40556;DHT22;26250;45.422;11.100;2023-07-13T01:46:20;26.00;76.10
40556;DHT22;26250;45.422;11.100;2023-07-13T01:48:51;26.10;75.60
40556;DHT22;26250;45.422;11.100;2023-07-13T01:51:18;26.20;75.50
40556;DHT22;26250;45.422;11.100;2023-07-13T01:53:46;26.30;75.60
40556;DHT22;26250;45.422;11.100;2023-07-13T01:56:13;26.40;77.10
40556;DHT22;26250;45.422;11.100;2023-07-13T01:58:40;26.40;76.00
40556;DHT22;26250;45.422;11.100;2023-07-13T02:01:07;26.20;77.00
40556;DHT22;26250;45.422;11.100;2023-07-13T02:03:34;26.10;77.80
40556;DHT22;26250;45.422;11.100;2023-07-13T02:06:01;26.10;77.50
40556;DHT22;26250;45.422;11.100;2023-07-13T02:08:28;26.20;77.60
40556;DHT22;26250;45.422;11.100;2023-07-13T02:10:56;25.90;78.80
40556;DHT22;26250;45.422;11.100;2023-07-13T02:13:23;26.00;78.90
40556;DHT22;26250;45.422;11.100;2023-07-13T02:15:51;25.90;79.20
40556;DHT22;26250;45.422;11.100;2023-07-13T02:18:18;25.90;79.80
40556;DHT22;26250;45.422;11.100;2023-07-13T02:20:45;25.90;79.50
40556;DHT22;26250;45.422;11.100;2023-07-13T02:23:12;25.70;79.90
40556;DHT22;26250;45.422;11.100;2023-07-13T02:25:39;25.70;79.70
40556;DHT22;26250;45.422;11.100;2023-07-13T02:28:08;25.90;79.00
40556;DHT22;26250;45.422;11.100;2023-07-13T02:30:35;25.80;80.70
40556;DHT22;26250;45.422;11.100;2023-07-13T02:33:05;25.80;81.90
40556;DHT22;26250;45.422;11.100;2023-07-13T02:35:32;25.80;79.40
40556;DHT22;26250;45.422;11.100;2023-07-13T02:37:59;25.80;79.80
40556;DHT22;26250;45.422;11.100;2023-07-13T02:40:27;25.80;80.40
40556;DHT22;26250;45.422;11.100;2023-07-13T02:42:54;25.60;80.60
40556;DHT22;26250;45.422;11.100;2023-07-13T02:45:21;25.60;80.60
40556;DHT22;26250;45.422;11.100;2023-07-13T02:47:48;25.50;81.00
40556;DHT22;26250;45.422;11.100;2023-07-13T02:50:15;25.60;80.70
40556;DHT22;26250;45.422;11.100;2023-07-13T02:52:42;25.50;80.70
40556;DHT22;26250;45.422;11.100;2023-07-13T02:55:09;25.40;81.00
40556;DHT22;26250;45.422;11.100;2023-07-13T02:57:36;25.50;80.90
40556;DHT22;26250;45.422;11.100;2023-07-13T03:00:04;25.60;80.70
40556;DHT22;26250;45.422;11.100;2023-07-13T03:02:33;25.50;80.70
40556;DHT22;26250;45.422;11.100;2023-07-13T03:05:00;25.40;81.30
40556;DHT22;26250;45.422;11.100;2023-07-13T03:07:27;25.20;82.10
40556;DHT22;26250;45.422;11.100;2023-07-13T03:09:58;25.30;82.20
40556;DHT22;26250;45.422;11.100;2023-07-13T03:12:34;25.30;81.60
40556;DHT22;26250;45.422;11.100;2023-07-13T03:15:05;25.30;81.60
40556;DHT22;26250;45.422;11.100;2023-07-13T03:17:34;25.40;81.30
40556;DHT22;26250;45.422;11.100;2023-07-13T03:20:01;25.50;80.80
40556;DHT22;26250;45.422;11.100;2023-07-13T03:22:31;25.40;81.50
40556;DHT22;26250;45.422;11.100;2023-07-13T03:24:58;25.30;81.40
40556;DHT22;26250;45.422;11.100;2023-07-13T03:27:25;25.40;81.30
40556;DHT22;26250;45.422;11.100;2023-07-13T03:29:54;25.10;82.20
40556;DHT22;26250;45.422;11.100;2023-07-13T03:32:22;25.30;81.60
40556;DHT22;26250;45.422;11.100;2023-07-13T03:34:53;25.50;81.20
40556;DHT22;26250;45.422;11.100;2023-07-13T03:37:20;25.50;80.70
40556;DHT22;26250;45.422;11.100;2023-07-13T03:39:47;25.30;81.60
40556;DHT22;26250;45.422;11.100;2023-07-13T03:42:15;25.20;82.20
40556;DHT22;26250;45.422;11.100;2023-07-13T03:44:42;25.30;81.80
40556;DHT22;26250;45.422;11.100;2023-07-13T03:47:12;25.20;81.80
40556;DHT22;26250;45.422;11.100;2023-07-13T03:49:39;25.20;82.70
40556;DHT22;26250;45.422;11.100;2023-07-13T03:52:07;25.30;83.30
40556;DHT22;26250;45.422;11.100;2023-07-13T03:54:34;25.40;82.60
40556;DHT22;26250;45.422;11.100;2023-07-13T03:57:02;25.40;82.40
40556;DHT22;26250;45.422;11.100;2023-07-13T03:59:31;25.50;81.90
40556;DHT22;26250;45.422;11.100;2023-07-13T04:01:58;25.60;81.80
40556;DHT22;26250;45.422;11.100;2023-07-13T04:04:25;25.70;81.10
40556;DHT22;26250;45.422;11.100;2023-07-13T04:06:52;25.80;80.60
40556;DHT22;26250;45.422;11.100;2023-07-13T04:09:20;25.90;80.80
40556;DHT22;26250;45.422;11.100;2023-07-13T04:11:47;25.90;80.50
40556;DHT22;26250;45.422;11.100;2023-07-13T04:14:14;26.00;80.60
40556;DHT22;26250;45.422;11.100;2023-07-13T04:16:42;25.90;81.10
40556;DHT22;26250;45.422;11.100;2023-07-13T04:19:09;25.90;81.80
40556;DHT22;26250;45.422;11.100;2023-07-13T04:21:37;25.70;82.30
40556;DHT22;26250;45.422;11.100;2023-07-13T04:24:06;25.80;82.10
40556;DHT22;26250;45.422;11.100;2023-07-13T04:26:34;25.90;80.90
40556;DHT22;26250;45.422;11.100;2023-07-13T04:29:06;26.00;80.80
40556;DHT22;26250;45.422;11.100;2023-07-13T04:31:33;26.00;81.00
40556;DHT22;26250;45.422;11.100;2023-07-13T04:34:00;26.10;80.80
40556;DHT22;26250;45.422;11.100;2023-07-13T04:36:28;26.30;79.60
40556;DHT22;26250;45.422;11.100;2023-07-13T04:38:55;26.30;80.40
40556;DHT22;26250;45.422;11.100;2023-07-13T04:41:22;26.30;80.50
40556;DHT22;26250;45.422;11.100;2023-07-13T04:43:49;26.50;79.40
40556;DHT22;26250;45.422;11.100;2023-07-13T04:46:17;26.70;78.40
40556;DHT22;26250;45.422;11.100;2023-07-13T04:48:45;26.90;77.60
40556;DHT22;26250;45.422;11.100;2023-07-13T04:51:12;26.90;77.90
40556;DHT22;26250;45.422;11.100;2023-07-13T04:53:39;27.00;78.00
40556;DHT22;26250;45.422;11.100;2023-07-13T04:56:06;27.10;77.70
40556;DHT22;26250;45.422;11.100;2023-07-13T04:58:33;27.20;77.00
40556;DHT22;26250;45.422;11.100;2023-07-13T05:01:02;27.30;76.60
40556;DHT22;26250;45.422;11.100;2023-07-13T05:03:30;27.20;76.50
40556;DHT22;26250;45.422;11.100;2023-07-13T05:05:59;27.20;76.70
40556;DHT22;26250;45.422;11.100;2023-07-13T05:08:26;27.10;77.40
40556;DHT22;26250;45.422;11.100;2023-07-13T05:10:56;27.00;76.50
40556;DHT22;26250;45.422;11.100;2023-07-13T05:13:23;26.80;77.20
40556;DHT22;26250;45.422;11.100;2023-07-13T05:16:03;26.80;76.60
40556;DHT22;26250;45.422;11.100;2023-07-13T05:18:30;26.80;76.70
40556;DHT22;26250;45.422;11.100;2023-07-13T05:20:59;26.70;77.40
40556;DHT22;26250;45.422;11.100;2023-07-13T05:23:27;26.80;77.90
40556;DHT22;26250;45.422;11.100;2023-07-13T05:25:54;26.80;77.20
40556;DHT22;26250;45.422;11.100;2023-07-13T05:28:21;26.80;76.60
40556;DHT22;26250;45.422;11.100;2023-07-13T05:30:51;26.80;77.30
40556;DHT22;26250;45.422;11.100;2023-07-13T05:33:18;26.70;77.70
40556;DHT22;26250;45.422;11.100;2023-07-13T05:35:46;26.70;77.80
40556;DHT22;26250;45.422;11.100;2023-07-13T05:38:13;26.60;78.30
40556;DHT22;26250;45.422;11.100;2023-07-13T05:40:42;26.70;78.40
40556;DHT22;26250;45.422;11.100;2023-07-13T05:43:10;26.70;78.50
40556;DHT22;26250;45.422;11.100;2023-07-13T05:45:37;26.60;79.20
40556;DHT22;26250;45.422;11.100;2023-07-13T05:48:04;26.60;79.80
40556;DHT22;26250;45.422;11.100;2023-07-13T05:50:31;26.60;79.80
40556;DHT22;26250;45.422;11.100;2023-07-13T05:52:58;26.60;78.70
40556;DHT22;26250;45.422;11.100;2023-07-13T05:55:25;26.70;78.60
40556;DHT22;26250;45.422;11.100;2023-07-13T05:57:52;26.70;77.90
40556;DHT22;26250;45.422;11.100;2023-07-13T06:00:25;26.80;77.20
40556;DHT22;26250;45.422;11.100;2023-07-13T06:02:52;26.80;77.40
40556;DHT22;26250;45.422;11.100;2023-07-13T06:05:19;26.90;77.40
40556;DHT22;26250;45.422;11.100;2023-07-13T06:07:46;26.80;77.40
40556;DHT22;26250;45.422;11.100;2023-07-13T06:10:13;26.70;77.80
40556;DHT22;26250;45.422;11.100;2023-07-13T06:12:40;26.80;76.80
40556;DHT22;26250;45.422;11.100;2023-07-13T06:15:07;26.80;76.90
40556;DHT22;26250;45.422;11.100;2023-07-13T06:17:37;26.90;75.70
40556;DHT22;26250;45.422;11.100;2023-07-13T06:20:05;26.90;76.10
40556;DHT22;26250;45.422;11.100;2023-07-13T06:22:32;26.90;74.90
40556;DHT22;26250;45.422;11.100;2023-07-13T06:24:59;26.90;75.70
40556;DHT22;26250;45.422;11.100;2023-07-13T06:27:26;26.70;75.70
40556;DHT22;26250;45.422;11.100;2023-07-13T06:29:56;26.60;76.60
40556;DHT22;26250;45.422;11.100;2023-07-13T06:32:23;26.50;77.40
40556;DHT22;26250;45.422;11.100;2023-07-13T06:34:50;26.70;77.00
40556;DHT22;26250;45.422;11.100;2023-07-13T06:37:19;26.60;77.80
40556;DHT22;26250;45.422;11.100;2023-07-13T06:39:45;26.70;77.90
40556;DHT22;26250;45.422;11.100;2023-07-13T06:42:12;26.80;78.70
40556;DHT22;26250;45.422;11.100;2023-07-13T06:44:40;26.80;78.90
40556;DHT22;26250;45.422;11.100;2023-07-13T06:47:07;26.70;79.40
40556;DHT22;26250;45.422;11.100;2023-07-13T06:49:34;26.70;79.70
40556;DHT22;26250;45.422;11.100;2023-07-13T06:52:01;26.80;79.70
40556;DHT22;26250;45.422;11.100;2023-07-13T06:54:28;26.80;80.20
40556;DHT22;26250;45.422;11.100;2023-07-13T06:56:58;26.80;80.00
40556;DHT22;26250;45.422;11.100;2023-07-13T06:59:25;26.80;79.70
40556;DHT22;26250;45.422;11.100;2023-07-13T07:01:52;26.80;80.00
40556;DHT22;26250;45.422;11.100;2023-07-13T07:04:20;26.70;79.50
40556;DHT22;26250;45.422;11.100;2023-07-13T07:06:47;26.60;80.10
40556;DHT22;26250;45.422;11.100;2023-07-13T07:09:14;26.60;80.50
40556;DHT22;26250;45.422;11.100;2023-07-13T07:11:43;26.60;80.70
40556;DHT22;26250;45.422;11.100;2023-07-13T07:14:28;26.60;80.50
40556;DHT22;26250;45.422;11.100;2023-07-13T07:16:55;26.70;80.10
40556;DHT22;26250;45.422;11.100;2023-07-13T07:19:22;26.60;80.40
40556;DHT22;26250;45.422;11.100;2023-07-13T07:21:52;26.70;80.70
40556;DHT22;26250;45.422;11.100;2023-07-13T07:24:19;26.60;81.10
40556;DHT22;26250;45.422;11.100;2023-07-13T07:26:45;26.50;81.30
40556;DHT22;26250;45.422;11.100;2023-07-13T07:29:15;26.60;81.50
40556;DHT22;26250;45.422;11.100;2023-07-13T07:31:45;26.70;81.30
40556;DHT22;26250;45.422;11.100;2023-07-13T07:34:15;26.80;80.90
40556;DHT22;26250;45.422;11.100;2023-07-13T07:36:42;26.90;80.60
40556;DHT22;26250;45.422;11.100;2023-07-13T07:39:12;27.00;80.30
40556;DHT22;26250;45.422;11.100;2023-07-13T07:41:39;27.10;80.00
40556;DHT22;26250;45.422;11.100;2023-07-13T07:44:22;27.10;79.50
40556;DHT22;26250;45.422;11.100;2023-07-13T07:46:49;27.10;80.30
40556;DHT22;26250;45.422;11.100;2023-07-13T07:49:16;27.00;80.20
40556;DHT22;26250;45.422;11.100;2023-07-13T07:51:43;27.10;80.40
40556;DHT22;26250;45.422;11.100;2023-07-13T07:54:10;27.10;79.70
40556;DHT22;26250;45.422;11.100;2023-07-13T07:56:47;27.20;78.80
40556;DHT22;26250;45.422;11.100;2023-07-13T07:59:36;27.30;77.80
40556;DHT22;26250;45.422;11.100;2023-07-13T08:02:08;27.30;77.70
40556;DHT22;26250;45.422;11.100;2023-07-13T08:04:55;27.30;77.40
40556;DHT22;26250;45.422;11.100;2023-07-13T08:07:27;27.20;77.20
40556;DHT22;26250;45.422;11.100;2023-07-13T08:09:54;27.10;77.40
40556;DHT22;26250;45.422;11.100;2023-07-13T08:12:22;27.10;77.60
40556;DHT22;26250;45.422;11.100;2023-07-13T08:14:52;27.10;77.80
40556;DHT22;26250;45.422;11.100;2023-07-13T08:17:25;27.20;78.30
40556;DHT22;26250;45.422;11.100;2023-07-13T08:19:52;27.20;78.80
40556;DHT22;26250;45.422;11.100;2023-07-13T08:22:22;27.20;79.30
40556;DHT22;26250;45.422;11.100;2023-07-13T08:24:49;27.20;80.40
40556;DHT22;26250;45.422;11.100;2023-07-13T08:27:24;27.20;80.10
40556;DHT22;26250;45.422;11.100;2023-07-13T08:29:51;27.20;80.60
40556;DHT22;26250;45.422;11.100;2023-07-13T08:32:20;27.20;81.10
40556;DHT22;26250;45.422;11.100;2023-07-13T08:34:48;27.10;80.00
40556;DHT22;26250;45.422;11.100;2023-07-13T08:37:16;27.10;78.40
40556;DHT22;26250;45.422;11.100;2023-07-13T08:39:43;27.10;78.00
40556;DHT22;26250;45.422;11.100;2023-07-13T08:42:22;27.00;78.00
40556;DHT22;26250;45.422;11.100;2023-07-13T08:44:54;27.10;77.10
40556;DHT22;26250;45.422;11.100;2023-07-13T08:47:24;27.10;77.10
40556;DHT22;26250;45.422;11.100;2023-07-13T08:49:52;27.00;78.40
40556;DHT22;26250;45.422;11.100;2023-07-13T08:54:55;26.90;78.40
40556;DHT22;26250;45.422;11.100;2023-07-13T08:57:29;26.90;79.10
40556;DHT22;26250;45.422;11.100;2023-07-13T08:59:58;26.90;79.90
40556;DHT22;26250;45.422;11.100;2023-07-13T09:02:32;26.90;81.50
40556;DHT22;26250;45.422;11.100;2023-07-13T09:05:30;26.90;80.60
40556;DHT22;26250;45.422;11.100;2023-07-13T09:16:46;27.10;80.00
40556;DHT22;26250;45.422;11.100;2023-07-13T09:19:21;27.00;80.90
40556;DHT22;26250;45.422;11.100;2023-07-13T09:21:51;27.00;82.60
40556;DHT22;26250;45.422;11.100;2023-07-13T09:26:46;26.70;84.20
40556;DHT22;26250;45.422;11.100;2023-07-13T09:29:33;26.80;85.70
40556;DHT22;26250;45.422;11.100;2023-07-13T09:32:04;26.70;86.30
40556;DHT22;26250;45.422;11.100;2023-07-13T09:34:33;26.80;85.20
40556;DHT22;26250;45.422;11.100;2023-07-13T09:37:01;26.80;82.20
40556;DHT22;26250;45.422;11.100;2023-07-13T09:39:35;26.90;82.60
40556;DHT22;26250;45.422;11.100;2023-07-13T09:42:22;26.90;82.00
40556;DHT22;26250;45.422;11.100;2023-07-13T09:44:58;26.90;82.30
40556;DHT22;26250;45.422;11.100;2023-07-13T09:47:28;26.90;82.40
40556;DHT22;26250;45.422;11.100;2023-07-13T09:49:59;27.00;83.50
40556;DHT22;26250;45.422;11.100;2023-07-13T09:52:47;27.10;82.90
40556;DHT22;26250;45.422;11.100;2023-07-13T09:55:34;27.20;81.60
40556;DHT22;26250;45.422;11.100;2023-07-13T09:58:17;27.30;80.80
40556;DHT22;26250;45.422;11.100;2023-07-13T10:00:57;27.20;81.50
40556;DHT22;26250;45.422;11.100;2023-07-13T10:03:30;27.40;81.70
40556;DHT22;26250;45.422;11.100;2023-07-13T10:06:20;27.50;81.60
40556;DHT22;26250;45.422;11.100;2023-07-13T10:08:52;27.60;81.30
40556;DHT22;26250;45.422;11.100;2023-07-13T10:11:27;27.90;79.60
40556;DHT22;26250;45.422;11.100;2023-07-13T10:13:59;27.90;79.90
40556;DHT22;26250;45.422;11.100;2023-07-13T10:16:33;27.90;79.30
40556;DHT22;26250;45.422;11.100;2023-07-13T10:19:28;28.00;79.60
40556;DHT22;26250;45.422;11.100;2023-07-13T10:22:10;28.20;79.00
40556;DHT22;26250;45.422;11.100;2023-07-13T10:24:40;28.30;77.20
40556;DHT22;26250;45.422;11.100;2023-07-13T10:27:47;28.50;76.10
40556;DHT22;26250;45.422;11.100;2023-07-13T10:30:22;28.60;76.30
40556;DHT22;26250;45.422;11.100;2023-07-13T10:32:52;28.80;75.00
40556;DHT22;26250;45.422;11.100;2023-07-13T10:35:21;28.90;73.80
40556;DHT22;26250;45.422;11.100;2023-07-13T10:38:05;29.00;73.50
40556;DHT22;26250;45.422;11.100;2023-07-13T10:40:52;29.10;74.40
40556;DHT22;26250;45.422;11.100;2023-07-13T10:43:25;29.20;74.20
40556;DHT22;26250;45.422;11.100;2023-07-13T10:45:54;29.30;74.10
40556;DHT22;26250;45.422;11.100;2023-07-13T10:48:23;29.40;73.70
40556;DHT22;26250;45.422;11.100;2023-07-13T10:50:52;29.50;73.50
40556;DHT22;26250;45.422;11.100;2023-07-13T10:53:21;29.60;73.60
40556;DHT22;26250;45.422;11.100;2023-07-13T10:58:39;29.60;71.70
40556;DHT22;26250;45.422;11.100;2023-07-13T11:03:36;29.70;72.70
40556;DHT22;26250;45.422;11.100;2023-07-13T11:06:07;29.80;72.40
40556;DHT22;26250;45.422;11.100;2023-07-13T11:08:52;29.90;72.00
40556;DHT22;26250;45.422;11.100;2023-07-13T11:18:53;30.20;69.30
40556;DHT22;26250;45.422;11.100;2023-07-13T11:21:35;30.20;70.20
40556;DHT22;26250;45.422;11.100;2023-07-13T11:31:56;30.10;70.60
40556;DHT22;26250;45.422;11.100;2023-07-13T11:34:28;30.10;71.20
40556;DHT22;26250;45.422;11.100;2023-07-13T11:36:59;30.20;71.10
40556;DHT22;26250;45.422;11.100;2023-07-13T11:39:36;30.30;71.00
40556;DHT22;26250;45.422;11.100;2023-07-13T11:42:15;30.30;70.90
40556;DHT22;26250;45.422;11.100;2023-07-13T11:44:48;30.50;71.40
40556;DHT22;26250;45.422;11.100;2023-07-13T11:47:40;30.50;69.90
40556;DHT22;26250;45.422;11.100;2023-07-13T11:50:22;30.60;69.40
40556;DHT22;26250;45.422;11.100;2023-07-13T11:52:51;30.60;69.00
40556;DHT22;26250;45.422;11.100;2023-07-13T11:55:21;30.60;69.00
40556;DHT22;26250;45.422;11.100;2023-07-13T11:57:51;30.50;69.00
40556;DHT22;26250;45.422;11.100;2023-07-13T12:00:23;30.50;69.20
40556;DHT22;26250;45.422;11.100;2023-07-13T12:02:53;30.60;70.10
40556;DHT22;26250;45.422;11.100;2023-07-13T12:05:21;30.60;69.10
40556;DHT22;26250;45.422;11.100;2023-07-13T12:07:49;30.50;69.60
40556;DHT22;26250;45.422;11.100;2023-07-13T12:12:53;30.60;70.00
40556;DHT22;26250;45.422;11.100;2023-07-13T12:15:22;30.60;70.00
40556;DHT22;26250;45.422;11.100;2023-07-13T12:17:49;30.50;69.80
40556;DHT22;26250;45.422;11.100;2023-07-13T12:20:37;30.40;70.10
40556;DHT22;26250;45.422;11.100;2023-07-13T12:23:29;30.40;69.80
40556;DHT22;26250;45.422;11.100;2023-07-13T12:25:53;30.40;69.30
40556;DHT22;26250;45.422;11.100;2023-07-13T12:28:40;30.50;69.40
40556;DHT22;26250;45.422;11.100;2023-07-13T12:31:45;30.60;67.70
40556;DHT22;26250;45.422;11.100;2023-07-13T12:34:16;30.60;68.70
40556;DHT22;26250;45.422;11.100;2023-07-13T12:36:59;30.60;68.90
40556;DHT22;26250;45.422;11.100;2023-07-13T12:39:34;30.70;68.70
40556;DHT22;26250;45.422;11.100;2023-07-13T12:42:21;30.70;68.30
40556;DHT22;26250;45.422;11.100;2023-07-13T12:44:53;30.70;67.70
40556;DHT22;26250;45.422;11.100;2023-07-13T12:47:21;30.80;67.70
40556;DHT22;26250;45.422;11.100;2023-07-13T12:49:59;30.90;67.30
40556;DHT22;26250;45.422;11.100;2023-07-13T12:52:34;31.00;66.80
40556;DHT22;26250;45.422;11.100;2023-07-13T12:55:27;31.10;67.40
40556;DHT22;26250;45.422;11.100;2023-07-13T12:58:03;31.10;67.70
40556;DHT22;26250;45.422;11.100;2023-07-13T13:00:35;31.20;68.00
40556;DHT22;26250;45.422;11.100;2023-07-13T13:05:59;31.10;68.90
40556;DHT22;26250;45.422;11.100;2023-07-13T13:08:26;31.10;68.50
40556;DHT22;26250;45.422;11.100;2023-07-13T13:10:53;31.10;68.50
40556;DHT22;26250;45.422;11.100;2023-07-13T13:13:21;31.10;68.30
40556;DHT22;26250;45.422;11.100;2023-07-13T13:15:48;31.30;69.10
40556;DHT22;26250;45.422;11.100;2023-07-13T13:18:17;31.30;68.10
40556;DHT22;26250;45.422;11.100;2023-07-13T13:20:44;31.40;68.00
40556;DHT22;26250;45.422;11.100;2023-07-13T13:23:19;31.30;67.30
40556;DHT22;26250;45.422;11.100;2023-07-13T13:25:49;31.30;67.50
40556;DHT22;26250;45.422;11.100;2023-07-13T13:28:19;31.30;67.30
40556;DHT22;26250;45.422;11.100;2023-07-13T13:30:48;31.30;66.10
40556;DHT22;26250;45.422;11.100;2023-07-13T13:33:18;31.40;66.70
40556;DHT22;26250;45.422;11.100;2023-07-13T13:35:45;31.50;65.90
40556;DHT22;26250;45.422;11.100;2023-07-13T13:38:18;31.50;65.30
40556;DHT22;26250;45.422;11.100;2023-07-13T13:40:46;31.60;65.40
40556;DHT22;26250;45.422;11.100;2023-07-13T13:43:24;31.60;64.80
40556;DHT22;26250;45.422;11.100;2023-07-13T13:45:59;31.70;64.60
40556;DHT22;26250;45.422;11.100;2023-07-13T13:48:33;31.70;65.10
40556;DHT22;26250;45.422;11.100;2023-07-13T13:51:06;31.70;64.80
40556;DHT22;26250;45.422;11.100;2023-07-13T13:53:39;31.70;64.80
40556;DHT22;26250;45.422;11.100;2023-07-13T13:56:06;31.70;65.00
40556;DHT22;26250;45.422;11.100;2023-07-13T13:58:33;31.70;64.90
40556;DHT22;26250;45.422;11.100;2023-07-13T14:01:01;31.70;64.70
40556;DHT22;26250;45.422;11.100;2023-07-13T14:03:28;31.80;65.90
40556;DHT22;26250;45.422;11.100;2023-07-13T14:05:56;31.70;66.10
40556;DHT22;26250;45.422;11.100;2023-07-13T14:08:24;31.70;65.80
40556;DHT22;26250;45.422;11.100;2023-07-13T14:10:53;31.50;66.30
40556;DHT22;26250;45.422;11.100;2023-07-13T14:13:26;31.60;67.20
40556;DHT22;26250;45.422;11.100;2023-07-13T14:15:55;31.60;67.60
40556;DHT22;26250;45.422;11.100;2023-07-13T14:18:22;31.60;66.50
40556;DHT22;26250;45.422;11.100;2023-07-13T14:20:53;31.70;66.80
40556;DHT22;26250;45.422;11.100;2023-07-13T14:23:20;31.70;67.00
40556;DHT22;26250;45.422;11.100;2023-07-13T14:25:47;31.70;66.00
40556;DHT22;26250;45.422;11.100;2023-07-13T14:28:25;31.70;66.00
40556;DHT22;26250;45.422;11.100;2023-07-13T14:30:54;31.70;66.40
40556;DHT22;26250;45.422;11.100;2023-07-13T14:33:23;31.70;66.50
40556;DHT22;26250;45.422;11.100;2023-07-13T14:35:51;31.70;66.80
40556;DHT22;26250;45.422;11.100;2023-07-13T14:38:20;31.70;66.90
40556;DHT22;26250;45.422;11.100;2023-07-13T14:40:47;31.70;66.90
40556;DHT22;26250;45.422;11.100;2023-07-13T14:43:17;31.60;67.00
40556;DHT22;26250;45.422;11.100;2023-07-13T14:45:47;31.60;66.80
40556;DHT22;26250;45.422;11.100;2023-07-13T14:48:24;31.70;67.00
40556;DHT22;26250;45.422;11.100;2023-07-13T14:50:57;31.70;66.90
40556;DHT22;26250;45.422;11.100;2023-07-13T14:53:26;31.80;67.30
40556;DHT22;26250;45.422;11.100;2023-07-13T14:55:54;31.90;67.10
40556;DHT22;26250;45.422;11.100;2023-07-13T14:58:22;31.70;67.80
40556;DHT22;26250;45.422;11.100;2023-07-13T15:00:49;31.70;68.80
40556;DHT22;26250;45.422;11.100;2023-07-13T15:03:21;31.70;69.00
40556;DHT22;26250;45.422;11.100;2023-07-13T15:05:49;31.60;68.20
40556;DHT22;26250;45.422;11.100;2023-07-13T15:08:16;31.60;69.00
40556;DHT22;26250;45.422;11.100;2023-07-13T15:10:43;31.50;68.70
40556;DHT22;26250;45.422;11.100;2023-07-13T15:13:21;31.50;69.00
40556;DHT22;26250;45.422;11.100;2023-07-13T15:15:51;31.50;68.90
40556;DHT22;26250;45.422;11.100;2023-07-13T15:18:21;31.50;68.20
40556;DHT22;26250;45.422;11.100;2023-07-13T15:20:50;31.50;69.40
40556;DHT22;26250;45.422;11.100;2023-07-13T15:23:17;31.50;69.30
40556;DHT22;26250;45.422;11.100;2023-07-13T15:25:45;31.40;68.70
40556;DHT22;26250;45.422;11.100;2023-07-13T15:28:13;31.40;68.80
40556;DHT22;26250;45.422;11.100;2023-07-13T15:30:42;31.40;69.40
40556;DHT22;26250;45.422;11.100;2023-07-13T15:35:45;31.40;69.30
40556;DHT22;26250;45.422;11.100;2023-07-13T15:38:21;31.30;69.00
40556;DHT22;26250;45.422;11.100;2023-07-13T15:40:49;31.30;69.30
40556;DHT22;26250;45.422;11.100;2023-07-13T15:43:18;31.30;69.30
40556;DHT22;26250;45.422;11.100;2023-07-13T15:45:46;31.40;69.10
40556;DHT22;26250;45.422;11.100;2023-07-13T15:48:31;31.50;68.90
40556;DHT22;26250;45.422;11.100;2023-07-13T15:51:01;31.60;67.40
40556;DHT22;26250;45.422;11.100;2023-07-13T15:53:33;31.50;68.50
40556;DHT22;26250;45.422;11.100;2023-07-13T15:56:02;31.60;68.60
40556;DHT22;26250;45.422;11.100;2023-07-13T15:58:38;31.60;67.60
40556;DHT22;26250;45.422;11.100;2023-07-13T16:01:08;31.60;67.30
40556;DHT22;26250;45.422;11.100;2023-07-13T16:03:35;31.60;67.80
40556;DHT22;26250;45.422;11.100;2023-07-13T16:06:02;31.60;67.40
40556;DHT22;26250;45.422;11.100;2023-07-13T16:08:32;31.60;67.10
40556;DHT22;26250;45.422;11.100;2023-07-13T16:11:00;31.70;66.40
40556;DHT22;26250;45.422;11.100;2023-07-13T16:13:27;31.50;66.80
40556;DHT22;26250;45.422;11.100;2023-07-13T16:15:54;31.50;67.00
40556;DHT22;26250;45.422;11.100;2023-07-13T16:18:23;31.60;66.90